Latest Weather Observations for Lucas Heights

IDN60901

Issued at 12:51 am EDT Sunday 1 March 2015 (issued every 10 minutes, with the page automatically refreshed every 10 minutes)

About weather observations | Map of Sydney area stations | Latest observations for Sydney area | Other Formats
Station Details ID: 066023 Name: LUCAS HEIGHTS AWS Lat: -34.05 Lon: 150.98 Height: 140.0 m
Data from the previous 72 hours. | See also: Recent months for locations in New South Wales
Date/Time
EDT
Tmp

°C
App
Tmp
°C
Dew
Point
°C
Rel
Hum
%
Delta-T

°C
Wind Press
QNH
hPa
Press
MSL
hPa
Rain
since
9 am
mm
Dir
 
Spd
km/h
Gust
km/h
Spd
kts
Gust
kts
01/12:30am 20.2 21.6 18.6 90 1.0 N 9 11 5 6 1008.1 - 0.0
01/12:15am 20.3 21.7 18.6 90 1.1 N 9 11 5 6 1008.1 - 0.0
01/12:00am 20.6 22.1 18.8 89 1.1 - 9 13 5 7 1008.2 - 0.0
 
Date/Time
EDT
Tmp

°C
App
Tmp
°C
Dew
Point
°C
Rel
Hum
%
Delta-T

°C
Wind Press
QNH
hPa
Press
MSL
hPa
Rain
since
9 am
mm
Dir
 
Spd
km/h
Gust
km/h
Spd
kts
Gust
kts
28/11:45pm 20.7 21.8 18.9 89 1.1 N 11 13 6 7 1008.3 - 0.0
28/11:30pm 20.9 22.1 19.0 89 1.2 N 11 13 6 7 1008.4 - 0.0
28/11:15pm 21.1 22.3 19.1 88 1.3 N 11 13 6 7 1008.5 - 0.0
28/11:00pm 21.3 22.6 19.3 88 1.3 NNE 11 15 6 8 1008.7 - 0.0
28/10:45pm 21.4 22.7 19.2 87 1.4 N 11 17 6 9 1008.7 - 0.0
28/10:30pm 21.6 22.9 19.3 87 1.5 NNE 11 15 6 8 1008.8 - 0.0
28/10:15pm 21.9 22.9 19.5 86 1.5 NNE 13 17 7 9 1008.7 - 0.0
28/10:00pm 22.2 22.9 19.6 85 1.7 NNE 15 19 8 10 1008.7 - 0.0
28/09:45pm 22.3 23.0 19.7 85 1.7 NNE 15 22 8 12 1008.7 - 0.0
28/09:30pm 22.3 23.4 19.7 85 1.7 NNE 13 20 7 11 1008.6 - 0.0
28/09:15pm 22.4 23.6 19.8 85 1.7 NE 13 20 7 11 1008.4 - 0.0
28/09:00pm 22.5 23.7 19.8 85 1.7 NE 13 17 7 9 1008.3 - 0.0
28/08:45pm 22.6 23.8 19.8 84 1.8 NE 13 20 7 11 1008.1 - 0.0
28/08:30pm 22.8 23.6 19.8 83 1.9 NE 15 20 8 11 1008.0 - 0.0
28/08:15pm 22.9 23.6 19.7 82 2.1 NE 15 24 8 13 1007.9 - 0.0
28/08:00pm 23.0 24.0 19.5 80 2.2 NE 13 22 7 12 1007.7 - 0.0
28/07:45pm 23.3 24.3 19.5 79 2.4 NE 13 19 7 10 1007.6 - 0.0
28/07:30pm 23.7 24.3 19.5 77 2.7 NE 15 22 8 12 1007.5 - 0.0
28/07:15pm 24.2 24.5 19.6 75 3.0 NE 17 24 9 13 1007.4 - 0.0
28/07:00pm 24.6 24.3 19.5 73 3.3 NE 20 28 11 15 1007.3 - 0.0
28/06:45pm 25.1 24.7 19.3 70 3.7 NE 20 28 11 15 1007.3 - 0.0
28/06:30pm 25.4 25.3 19.5 70 3.8 NE 19 28 10 15 1007.4 - 0.0
28/06:15pm 25.9 26.2 19.7 68 4.0 ENE 17 24 9 13 1007.4 - 0.0
28/06:00pm 26.2 26.2 19.7 67 4.2 ENE 19 24 10 13 1007.5 - 0.0
28/05:45pm 26.5 26.9 19.8 66 4.4 ENE 17 24 9 13 1007.5 - 0.0
28/05:30pm 26.7 27.0 19.5 64 4.7 NE 17 24 9 13 1007.5 - 0.0
28/05:15pm 27.3 28.1 19.9 64 4.8 ENE 15 24 8 13 1007.5 - 0.0
28/05:00pm 26.5 27.5 19.4 65 4.6 ENE 13 22 7 12 1007.6 - 0.0
28/04:45pm 27.5 27.8 19.6 62 5.2 ENE 17 22 9 12 1007.5 - 0.0
28/04:30pm 27.6 28.9 20.1 63 4.9 ENE 13 19 7 10 1007.6 - 0.0
28/04:15pm 27.1 27.5 19.9 64 4.7 ENE 17 22 9 12 1007.6 - 0.0
28/04:00pm 27.0 27.2 20.2 66 4.5 ENE 19 28 10 15 1007.7 - 0.0
28/03:45pm 26.5 27.0 20.0 67 4.3 ENE 17 24 9 13 1007.8 - 0.0
28/03:30pm 26.6 27.6 20.3 68 4.1 ENE 15 22 8 12 1008.1 - 0.0
28/03:15pm 26.6 26.7 20.0 67 4.3 ENE 19 24 10 13 1008.4 - 0.0
28/03:00pm 26.7 27.3 20.3 68 4.2 ENE 17 22 9 12 1008.4 - 0.0
28/02:45pm 27.0 28.3 20.2 66 4.5 ENE 13 22 7 12 1008.5 - 0.0
28/02:30pm 27.3 28.3 20.2 65 4.7 ENE 15 22 8 12 1008.6 - 0.0
28/02:15pm 27.8 29.2 19.6 61 5.4 NE 11 17 6 9 1008.7 - 0.0
28/02:00pm 27.5 28.6 18.0 56 6.1 NNE 9 17 5 9 1008.8 - 0.0
28/01:45pm 27.9 29.3 18.7 57 5.9 NNE 9 19 5 10 1009.0 - 0.0
28/01:30pm 27.4 28.9 18.8 59 5.5 NNE 9 17 5 9 1009.2 - 0.0
28/01:15pm 26.8 28.1 18.5 60 5.3 NE 9 17 5 9 1009.4 - 0.0
28/01:00pm 26.5 28.0 18.8 62 5.0 NNE 9 17 5 9 1009.5 - 0.0
28/12:45pm 26.3 28.1 19.5 66 4.4 NNE 9 19 5 10 1009.8 - 0.0
28/12:30pm 25.8 27.6 19.5 68 4.1 NNE 9 17 5 9 1010.1 - 0.0
28/12:15pm 25.3 27.5 19.7 71 3.6 N 7 17 4 9 1010.2 - 0.0
28/12:00pm 24.5 26.7 19.6 74 3.2 NNE 7 9 4 5 1010.3 - 0.0
28/11:45am 24.3 26.5 19.3 73 3.2 NNE 6 11 3 6 1010.6 - 0.0
28/11:30am 24.0 26.2 19.5 76 2.9 N 7 13 4 7 1010.7 - 0.0
28/11:15am 23.5 25.8 19.8 80 2.4 N 7 13 4 7 1010.9 - 0.0
28/11:00am 23.3 25.9 20.1 82 2.1 N 6 9 3 5 1010.9 - 0.0
28/10:45am 23.0 25.7 20.3 85 1.8 NNE 6 11 3 6 1011.0 - 0.0
28/10:30am 22.7 25.6 20.7 88 1.3 N 6 9 3 5 1011.1 - 0.0
28/10:15am 22.1 25.5 21.0 93 0.7 N 4 7 2 4 1011.1 - 0.0
28/10:00am 21.2 24.3 20.2 94 0.6 NNW 4 7 2 4 1011.0 - 0.0
28/09:45am 21.0 24.1 20.2 95 0.5 NNW 4 7 2 4 1011.0 - 0.0
28/09:30am 20.5 22.9 19.7 95 0.5 NW 6 7 3 4 1011.1 - 0.0
28/09:15am 20.3 23.1 19.6 96 0.4 NW 4 7 2 4 1011.0 - 0.0
28/09:00am 20.0 23.0 19.3 96 0.4 NW 2 6 1 3 1010.8 - 0.0
28/08:45am 19.6 22.0 18.9 96 0.4 N 4 6 2 3 1010.8 - 0.0
28/08:30am 19.1 21.3 18.4 96 0.4 N 4 6 2 3 1010.8 - 0.0
28/08:15am 18.6 20.6 17.9 96 0.4 N 4 6 2 3 1010.7 - 0.0
28/08:00am 18.1 19.9 17.4 96 0.4 N 4 6 2 3 1010.7 - 0.0
28/07:45am 17.8 19.4 17.0 95 0.5 N 4 7 2 4 1010.5 - 0.0
28/07:30am 17.8 19.5 17.1 96 0.4 N 4 7 2 4 1010.4 - 0.0
28/07:15am 17.6 18.8 16.8 95 0.5 N 6 7 3 4 1010.4 - 0.0
28/07:00am 17.5 18.6 16.7 95 0.5 N 6 9 3 5 1010.2 - 0.0
28/06:45am 18.0 19.1 17.2 95 0.5 N 7 11 4 6 1010.2 - 0.0
28/06:30am 17.9 18.6 17.1 95 0.5 N 9 11 5 6 1010.0 - 0.0
28/06:15am 17.4 17.9 16.6 95 0.5 N 9 9 5 5 1009.8 - 0.0
28/06:00am 17.4 18.3 16.6 95 0.5 N 7 9 4 5 1009.7 - 0.0
28/05:45am 17.4 18.5 16.5 94 0.5 N 6 7 3 4 1009.6 - 0.0
28/05:30am 17.6 19.2 16.8 95 0.5 N 4 4 2 2 1009.6 - 0.0
28/05:15am 18.1 19.8 17.2 94 0.5 N 4 7 2 4 1009.5 - 0.0
28/05:00am 18.2 19.6 17.3 94 0.5 N 6 9 3 5 1009.5 - 0.0
28/04:45am 18.2 19.4 17.3 94 0.5 N 7 9 4 5 1009.4 - 0.0
28/04:30am 18.3 19.7 17.4 94 0.5 - 6 9 3 5 1009.5 - 0.0
28/04:15am 18.2 19.6 17.3 94 0.5 - 6 7 3 4 1009.7 - 0.0
28/04:00am 18.2 19.9 17.2 94 0.6 N 4 6 2 3 1009.7 - 0.0
28/03:45am 18.3 20.1 17.3 94 0.6 N 4 6 2 3 1009.8 - 0.0
28/03:30am 18.6 20.1 17.6 94 0.6 NW 6 7 3 4 1009.9 - 0.0
28/03:15am 18.8 20.4 17.8 94 0.6 NW 6 7 3 4 1009.9 - 0.0
28/03:00am 18.8 20.2 17.8 94 0.6 NW 7 9 4 5 1010.0 - 0.0
28/02:45am 19.0 20.4 17.9 93 0.7 NNW 7 7 4 4 1009.8 - 0.0
28/02:30am 19.2 20.7 18.1 93 0.7 NNW 7 9 4 5 1009.9 - 0.0
28/02:15am 19.2 20.3 18.1 93 0.7 NNW 9 9 5 5 1010.0 - 0.0
28/02:00am 19.2 20.9 18.0 93 0.7 NNW 6 7 3 4 1010.1 - 0.0
28/01:45am 19.3 20.8 18.0 92 0.8 NNW 7 9 4 5 1010.2 - 0.0
28/01:30am 19.6 21.2 18.3 92 0.8 N 7 9 4 5 1010.4 - 0.0
28/01:15am 19.7 21.3 18.3 92 0.9 N 7 11 4 6 1010.5 - 0.0
28/01:00am 19.9 20.5 18.7 93 0.8 NNW 13 17 7 9 1010.7 - 0.0
28/12:45am 19.8 20.7 18.4 92 0.9 NNW 11 17 6 9 1010.8 - 0.0
28/12:30am 19.8 21.1 18.4 92 0.9 N 9 13 5 7 1010.9 - 0.0
28/12:15am 20.1 21.0 18.5 90 1.0 N 11 15 6 8 1011.0 - 0.0
28/12:00am 20.3 21.3 18.7 90 1.0 - 11 13 6 7 1011.2 - 0.0
 
Date/Time
EDT
Tmp

°C
App
Tmp
°C
Dew
Point
°C
Rel
Hum
%
Delta-T

°C
Wind Press
QNH
hPa
Press
MSL
hPa
Rain
since
9 am
mm
Dir
 
Spd
km/h
Gust
km/h
Spd
kts
Gust
kts
27/11:45pm 20.5 21.6 18.9 90 1.0 N 11 13 6 7 1011.3 - 0.0
27/11:30pm 20.7 22.2 19.0 90 1.1 N 9 13 5 7 1011.3 - 0.0
27/11:15pm 20.5 22.3 18.7 89 1.1 NNE 7 9 4 5 1011.3 - 0.0
27/11:00pm 20.7 22.2 18.9 89 1.1 NNE 9 11 5 6 1011.2 - 0.0
27/10:45pm 20.9 21.7 19.1 89 1.1 NE 13 15 7 8 1011.2 - 0.0
27/10:30pm 21.0 22.6 19.1 89 1.2 NE 9 13 5 7 1011.3 - 0.0
27/10:15pm 20.9 23.0 18.9 88 1.3 ENE 6 9 3 5 1011.3 - 0.0
27/10:00pm 21.0 22.9 18.9 88 1.3 E 7 9 4 5 1011.2 - 0.0
27/09:45pm 21.0 23.0 18.8 87 1.4 E 6 9 3 5 1011.1 - 0.0
27/09:30pm 21.3 23.2 18.9 86 1.5 E 7 11 4 6 1010.9 - 0.0
27/09:15pm 21.4 23.3 19.0 86 1.5 E 7 11 4 6 1010.8 - 0.0
27/09:00pm 21.4 22.9 19.0 86 1.5 E 9 13 5 7 1010.5 - 0.0
27/08:45pm 21.5 23.0 19.0 86 1.6 ENE 9 13 5 7 1010.3 - 0.0
27/08:30pm 21.6 23.1 19.0 85 1.7 E 9 13 5 7 1010.2 - 0.0
27/08:15pm 21.8 23.7 19.0 84 1.8 E 7 13 4 7 1010.0 - 0.0
27/08:00pm 22.1 24.1 19.1 83 1.9 E 7 11 4 6 1009.8 - 0.0
27/07:45pm 22.4 24.0 19.1 81 2.1 E 9 13 5 7 1009.6 - 0.0
27/07:30pm 22.7 24.0 19.2 80 2.2 E 11 17 6 9 1009.3 - 0.0
27/07:15pm 23.1 24.0 19.2 79 2.5 E 13 19 7 10 1009.1 - 0.0
27/07:00pm 23.5 23.9 19.1 76 2.8 E 15 22 8 12 1009.0 - 0.0
27/06:45pm 23.7 24.5 19.1 75 2.9 E 13 19 7 10 1008.9 - 0.0
27/06:30pm 24.1 24.9 19.1 73 3.2 E 13 20 7 11 1008.8 - 0.0
27/06:15pm 24.5 25.3 19.0 71 3.5 E 13 22 7 12 1008.8 - 0.0
27/06:00pm 24.7 25.1 19.1 71 3.6 E 15 22 8 12 1008.6 - 0.0
27/05:45pm 24.9 25.4 19.2 70 3.7 E 15 22 8 12 1008.7 - 0.0
27/05:30pm 24.8 25.7 19.3 71 3.5 E 13 22 7 12 1008.7 - 0.0
27/05:15pm 24.9 25.3 19.0 69 3.8 E 15 24 8 13 1008.6 - 0.0
27/05:00pm 25.3 26.2 19.3 69 3.9 E 13 20 7 11 1008.6 - 0.0
27/04:45pm 24.9 24.9 18.9 69 3.8 ESE 17 24 9 13 1008.6 - 0.0
27/04:30pm 25.2 25.6 19.0 68 4.0 ESE 15 22 8 12 1008.7 - 0.0
27/04:15pm 25.2 25.4 18.6 67 4.2 ESE 15 24 8 13 1008.8 - 0.0
27/04:00pm 25.4 25.7 18.8 67 4.2 E 15 24 8 13 1008.9 - 0.0
27/03:45pm 25.6 26.0 19.0 67 4.2 E 15 22 8 12 1009.1 - 0.0
27/03:30pm 25.4 25.4 19.0 67 4.1 E 17 24 9 13 1009.2 - 0.0
27/03:15pm 25.7 26.1 19.1 67 4.3 ESE 15 22 8 12 1009.3 - 0.0
27/03:00pm 25.2 25.6 19.0 68 4.0 ESE 15 22 8 12 1009.5 - 0.0
27/02:45pm 24.9 25.9 18.7 68 4.0 ESE 11 19 6 10 1009.7 - 0.0
27/02:30pm 25.5 26.7 19.1 67 4.1 SE 11 20 6 11 1009.7 - 0.0
27/02:15pm 25.3 26.9 19.1 68 4.0 ESE 9 19 5 10 1009.7 - 0.0
27/02:00pm 25.5 26.8 19.4 69 3.9 E 11 20 6 11 1009.7 - 0.0
27/01:45pm 25.3 26.3 19.4 70 3.8 ESE 13 20 7 11 1009.9 - 0.0
27/01:30pm 24.2 25.4 19.0 72 3.3 ESE 11 19 6 10 1010.2 - 0.0
27/01:15pm 24.3 25.0 18.9 72 3.5 ESE 13 20 7 11 1010.3 - 0.0
27/01:00pm 23.9 24.5 18.7 72 3.3 ESE 13 20 7 11 1010.5 - 0.0
27/12:45pm 23.9 24.5 18.7 72 3.3 ESE 13 17 7 9 1010.6 - 0.0
27/12:30pm 23.7 24.8 18.9 74 3.1 SE 11 17 6 9 1010.7 - 0.0
27/12:15pm 23.7 24.4 18.8 74 3.1 SSE 13 20 7 11 1010.8 - 0.0
27/12:00pm 24.2 25.0 19.0 72 3.3 SE 13 20 7 11 1011.0 - 0.0
27/11:45am 24.0 25.1 18.8 72 3.3 ESE 11 19 6 10 1010.9 - 0.0
27/11:30am 24.0 25.1 18.9 73 3.3 SE 11 17 6 9 1011.1 - 0.0
27/11:15am 24.2 25.7 19.7 76 2.9 SSE 11 19 6 10 1011.3 - 0.0
27/11:00am 23.5 25.4 19.7 79 2.5 SSE 9 17 5 9 1011.3 - 0.0
27/10:45am 23.2 24.1 19.3 79 2.5 SE 13 22 7 12 1011.4 - 0.0
27/10:30am 23.1 24.1 19.5 80 2.3 SE 13 22 7 12 1011.4 - 0.0
27/10:15am 22.3 23.6 19.3 83 1.9 SE 11 19 6 10 1011.4 - 0.0
27/10:00am 22.2 23.5 19.2 83 1.9 SSE 11 19 6 10 1011.3 - 0.0
27/09:45am 22.4 23.7 19.4 83 1.9 SE 11 19 6 10 1011.3 - 0.0
27/09:30am 22.2 24.0 19.5 85 1.7 SE 9 19 5 10 1011.2 - 0.0
27/09:15am 21.7 22.2 19.2 86 1.6 SE 15 26 8 14 1011.0 - 0.0
27/09:00am 21.9 23.0 19.7 87 1.4 SE 13 19 7 10 1010.9 - 2.9
27/08:45am 21.6 22.7 19.7 89 1.2 SE 13 22 7 12 1010.9 - 2.9
27/08:30am 21.3 22.8 19.8 91 1.0 SSE 11 19 6 10 1010.9 - 2.9
27/08:15am 20.6 22.0 19.6 94 0.6 SSE 11 17 6 9 1010.8 - 2.9
27/08:00am 19.9 20.6 18.9 94 0.6 SSE 13 19 7 10 1010.7 - 2.9
27/07:45am 19.7 20.4 18.8 94 0.6 SSE 13 19 7 10 1010.5 - 2.9
27/07:30am 19.7 20.0 18.8 94 0.6 SSE 15 22 8 12 1010.3 - 2.9
27/07:15am 19.5 20.1 18.7 95 0.5 S 13 20 7 11 1010.1 - 2.9
27/07:00am 19.4 20.7 18.5 94 0.6 SSE 9 17 5 9 1009.8 - 2.9
27/06:45am 19.3 21.0 18.4 94 0.6 SSE 7 15 4 8 1009.7 - 2.9
27/06:30am 19.2 20.1 18.4 95 0.5 SSE 11 19 6 10 1009.4 - 2.9
27/06:15am 19.1 19.6 18.3 95 0.5 SSE 13 20 7 11 1009.2 - 2.9
27/06:00am 19.1 20.0 18.3 95 0.5 SSE 11 17 6 9 1009.2 - 2.9
27/05:45am 18.9 20.0 18.1 95 0.5 S 9 15 5 8 1009.1 - 2.9
27/05:30am 19.0 20.2 18.2 95 0.5 S 9 17 5 9 1009.0 - 2.9
27/05:15am 19.1 19.6 18.3 95 0.5 S 13 19 7 10 1008.9 - 2.9
27/05:00am 19.1 19.2 18.3 95 0.5 S 15 20 8 11 1008.7 - 2.9
27/04:45am 18.7 18.7 18.0 96 0.4 S 15 22 8 12 1008.7 - 2.7
27/04:30am 18.1 18.5 17.3 95 0.5 SSE 11 17 6 9 1008.7 - 2.7
27/04:15am 18.3 19.5 17.4 94 0.5 SSE 7 13 4 7 1008.7 - 2.7
27/04:00am 18.6 20.1 17.7 94 0.6 S 6 11 3 6 1008.6 - 2.7
27/03:45am 18.7 19.8 17.9 95 0.5 S 9 13 5 7 1008.6 - 2.7
27/03:30am 18.7 19.3 17.8 94 0.6 S 11 17 6 9 1008.6 - 2.7
27/03:15am 18.7 19.0 17.8 94 0.6 S 13 17 7 9 1008.6 - 2.7
27/03:00am 18.8 19.1 17.9 94 0.6 S 13 19 7 10 1008.7 - 2.7
27/02:45am 19.0 19.0 18.1 94 0.6 S 15 19 8 10 1008.7 - 2.7
27/02:30am 18.9 18.9 18.1 95 0.5 S 15 22 8 12 1008.8 - 2.7
27/02:15am 18.9 19.6 18.0 94 0.6 S 11 19 6 10 1008.9 - 2.7
27/02:00am 18.8 18.7 17.9 94 0.6 S 15 22 8 12 1009.0 - 2.7
27/01:45am 18.8 18.7 17.9 94 0.6 S 15 20 8 11 1009.1 - 2.7
27/01:30am 18.6 18.1 17.7 94 0.6 S 17 20 9 11 1009.3 - 2.7
27/01:15am 18.3 17.9 17.2 93 0.7 S 15 20 8 11 1009.5 - 2.7
27/01:00am 18.5 19.4 17.5 94 0.6 S 9 13 5 7 1009.5 - 2.7
27/12:45am 18.7 19.7 17.7 94 0.6 S 9 13 5 7 1009.5 - 2.7
27/12:30am 18.9 19.6 17.9 94 0.6 S 11 15 6 8 1009.5 - 2.7
27/12:15am 19.3 20.5 18.3 94 0.6 S 9 13 5 7 1009.5 - 2.7
27/12:00am 19.5 21.3 18.4 93 0.7 S 6 7 3 4 1009.4 - 2.7
 
Date/Time
EDT
Tmp

°C
App
Tmp
°C
Dew
Point
°C
Rel
Hum
%
Delta-T

°C
Wind Press
QNH
hPa
Press
MSL
hPa
Rain
since
9 am
mm
Dir
 
Spd
km/h
Gust
km/h
Spd
kts
Gust
kts
26/11:45pm 19.6 22.2 18.5 93 0.7 SSE 2 4 1 2 1009.4 - 2.7
26/11:30pm 19.7 22.0 18.6 93 0.7 SE 4 7 2 4 1009.4 - 2.7
26/11:15pm 19.7 21.0 18.5 93 0.8 SSE 9 13 5 7 1009.5 - 2.7
26/11:00pm 19.8 21.7 18.6 93 0.8 SSE 6 9 3 5 1009.4 - 2.7
26/10:45pm 20.0 21.8 18.8 93 0.8 SSE 7 17 4 9 1009.5 - 2.7
26/10:30pm 20.0 20.3 18.7 92 0.8 NE 15 20 8 11 1009.0 - 2.7
26/10:15pm 20.1 21.5 18.7 92 0.9 NE 9 15 5 8 1009.5 - 2.5
26/10:00pm 20.3 22.3 18.8 91 0.9 NE 6 9 3 5 1009.8 - 2.5
26/09:45pm 20.3 22.7 18.8 91 0.9 NE 4 11 2 6 1010.0 - 2.5
26/09:30pm 20.3 22.3 18.7 90 1.0 ESE 6 9 3 5 1010.0 - 2.5
26/09:15pm 20.5 22.5 18.7 89 1.1 SSW 6 9 3 5 1009.8 - 2.5
26/09:00pm 20.6 22.9 18.6 88 1.3 SW 4 9 2 5 1009.5 - 2.5
26/08:45pm 20.9 21.9 18.7 87 1.4 SW 11 19 6 10 1008.9 - 2.5
26/08:30pm 21.1 21.1 18.9 87 1.4 WSW 17 20 9 11 1008.6 - 2.5
26/08:15pm 20.9 20.8 18.8 88 1.3 WSW 17 24 9 13 1008.4 - 2.5
26/08:00pm 20.9 21.5 18.6 87 1.4 NNW 13 22 7 12 1007.4 - 2.5
26/07:45pm 21.7 20.8 18.3 81 2.1 ESE 20 32 11 17 1006.1 - 2.5
26/07:30pm 21.2 19.0 19.5 90 1.1 SE 30 33 16 18 1006.1 - 2.3
26/07:15pm 21.1 21.2 19.2 89 1.2 SSE 17 24 9 13 1007.3 - 2.3
26/07:00pm 21.7 22.1 19.1 85 1.7 SW 15 24 8 13 1007.6 - 1.3
26/06:45pm 22.9 23.2 19.6 81 2.1 WSW 17 22 9 12 1007.4 - 0.2
26/06:30pm 23.4 25.8 19.7 80 2.4 SW 6 17 3 9 1007.0 - 0.0
26/06:15pm 23.7 26.8 19.6 78 2.6 SE 2 6 1 3 1006.7 - 0.0
26/06:00pm 24.0 26.2 19.6 76 2.8 E 7 9 4 5 1006.5 - 0.0
26/05:45pm 24.3 26.5 19.7 75 3.0 ENE 7 11 4 6 1006.4 - 0.0
26/05:30pm 24.7 26.6 19.7 73 3.2 NE 9 13 5 7 1006.2 - 0.0
26/05:15pm 25.1 27.3 19.7 72 3.5 ENE 7 11 4 6 1006.2 - 0.0
26/05:00pm 25.2 27.1 19.7 71 3.6 NE 9 13 5 7 1006.3 - 0.0
26/04:45pm 25.1 27.3 19.5 71 3.6 NE 7 13 4 7 1006.4 - 0.0
26/04:30pm 25.4 27.4 19.1 68 4.1 N 7 11 4 6 1006.4 - 0.0
26/04:15pm 25.2 27.1 18.6 67 4.2 N 6 7 3 4 1006.4 - 0.0
26/04:00pm 25.5 27.9 18.9 67 4.2 N 4 7 2 4 1006.8 - 0.0
26/03:45pm 25.3 27.3 18.8 67 4.2 - 6 9 3 5 1006.9 - 0.0
26/03:30pm 25.5 28.0 19.0 67 4.2 N 4 9 2 5 1006.9 - 0.0
26/03:15pm 25.0 27.2 19.1 70 3.8 NNW 6 13 3 7 1007.0 - 0.0
26/03:00pm 24.8 27.0 19.1 70 3.7 NNE 6 13 3 7 1007.2 - 0.0
26/02:45pm 24.4 26.4 19.1 72 3.4 N 7 13 4 7 1007.5 - 0.0
26/02:30pm 24.1 26.0 18.9 72 3.3 N 7 15 4 8 1007.5 - 0.0
26/02:15pm 24.4 26.5 19.0 72 3.5 - 6 9 3 5 1007.6 - 0.0
26/02:00pm 24.1 26.1 18.7 72 3.4 N 6 11 3 6 1007.9 - 0.0
26/01:45pm 24.3 26.2 19.0 72 3.4 NNE 7 13 4 7 1008.1 - 0.0
26/01:30pm 23.8 26.0 19.1 75 3.0 NNW 6 11 3 6 1008.5 - 0.0
26/01:15pm 23.3 25.4 18.9 76 2.8 NNW 6 9 3 5 1008.6 - 0.0
26/01:00pm 23.1 25.0 18.9 77 2.7 NNW 7 13 4 7 1008.9 - 0.0
26/12:45pm 23.0 25.0 19.1 78 2.5 NNW 7 13 4 7 1009.1 - 0.0
26/12:30pm 22.4 24.2 18.7 79 2.3 NNW 7 13 4 7 1009.4 - 0.0
26/12:15pm 22.3 24.1 18.7 80 2.3 NNW 7 13 4 7 1009.6 - 0.0
26/12:00pm 22.2 23.6 18.6 80 2.3 NNW 9 15 5 8 1009.9 - 0.0
26/11:45am 22.2 23.9 18.6 80 2.3 NNW 7 13 4 7 1010.1 - 0.0
26/11:30am 22.0 23.4 18.7 81 2.1 NNW 9 13 5 7 1010.3 - 0.0
26/11:15am 21.7 22.6 18.4 81 2.1 NNW 11 17 6 9 1010.4 - 0.0
26/11:00am 21.7 22.9 18.3 81 2.1 NNW 9 15 5 8 1010.6 - 0.0
26/10:45am 22.0 23.9 18.9 82 2.0 NNW 7 15 4 8 1010.6 - 0.0
26/10:30am 21.3 23.0 18.5 84 1.8 NW 7 9 4 5 1010.7 - 0.0
26/10:15am 20.8 22.5 18.5 87 1.4 WNW 7 9 4 5 1010.8 - 0.0
26/10:00am 20.4 22.2 18.3 88 1.3 WNW 6 9 3 5 1010.8 - 0.0
26/09:45am 20.1 21.9 18.2 89 1.2 W 6 7 3 4 1010.8 - 0.0
26/09:30am 19.9 21.7 18.3 90 1.0 WSW 6 7 3 4 1010.9 - 0.0
26/09:15am 19.4 21.1 18.0 92 0.9 WSW 6 7 3 4 1010.9 - 0.0
26/09:00am 19.0 20.6 17.8 93 0.7 WSW 6 9 3 5 1010.9 - 6.3
26/08:45am 18.3 19.6 17.2 93 0.7 WSW 6 7 3 4 1010.9 - 6.3
26/08:30am 18.1 19.1 16.9 93 0.7 WSW 7 9 4 5 1010.9 - 6.3
26/08:15am 17.9 18.5 16.7 93 0.7 WSW 9 13 5 7 1010.7 - 6.3
26/08:00am 17.9 18.4 16.6 92 0.8 WSW 9 13 5 7 1010.7 - 6.3
26/07:45am 17.9 18.8 16.6 92 0.8 WSW 7 9 4 5 1010.7 - 6.3
26/07:30am 18.0 19.5 16.7 92 0.8 SW 4 7 2 4 1010.6 - 6.3
26/07:15am 18.1 20.0 16.6 91 0.9 WSW 2 4 1 2 1010.5 - 6.3
26/07:00am 18.1 20.0 16.6 91 0.9 WSW 2 4 1 2 1010.4 - 6.3
26/06:45am 18.2 20.4 16.6 90 1.0 CALM 0 2 0 1 1010.3 - 6.3
26/06:30am 18.4 20.7 16.7 90 1.0 CALM 0 4 0 2 1010.3 - 6.3
26/06:15am 18.4 19.9 16.7 90 1.0 E 4 6 2 3 1010.2 - 6.3
26/06:00am 18.4 19.9 16.7 90 1.0 S 4 6 2 3 1010.1 - 6.3
26/05:45am 18.3 19.4 16.6 90 1.0 S 6 7 3 4 1010.1 - 6.3
26/05:30am 18.3 19.4 16.6 90 1.0 S 6 7 3 4 1010.2 - 6.3
26/05:15am 18.3 19.2 16.5 89 1.1 S 7 9 4 5 1010.2 - 6.3
26/05:00am 18.5 20.0 16.6 89 1.1 SSW 4 9 2 5 1010.3 - 6.3
26/04:45am 18.6 20.5 16.6 88 1.2 WSW 2 4 1 2 1010.5 - 6.3
26/04:30am 18.7 20.2 16.7 88 1.2 S 4 7 2 4 1010.6 - 6.3
26/04:15am 18.6 19.7 16.6 88 1.2 S 6 9 3 5 1010.7 - 6.3
26/04:00am 18.5 19.4 16.6 89 1.1 SSE 7 13 4 7 1010.6 - 6.3
26/03:45am 18.4 19.5 16.6 89 1.1 SSE 6 13 3 7 1010.7 - 6.3
26/03:30am 18.2 18.3 16.4 89 1.1 SSE 11 17 6 9 1010.7 - 6.3
26/03:15am 18.0 18.0 16.2 89 1.1 SSE 11 13 6 7 1010.9 - 6.3
26/03:00am 18.0 18.0 16.2 89 1.1 SSE 11 13 6 7 1011.0 - 6.3
26/02:45am 18.1 18.5 16.2 89 1.1 SSE 9 11 5 6 1011.3 - 6.3
26/02:30am 18.0 18.7 16.1 89 1.1 S 7 9 4 5 1011.6 - 6.3
26/02:15am 18.1 19.0 16.1 88 1.2 S 6 7 3 4 1011.9 - 6.3
26/02:00am 18.1 18.8 16.1 88 1.2 S 7 9 4 5 1012.1 - 6.3
26/01:45am 18.2 18.9 16.2 88 1.2 SSW 7 9 4 5 1012.3 - 6.3
26/01:30am 18.2 18.9 16.2 88 1.2 SSW 7 9 4 5 1012.5 - 6.3
26/01:15am 18.2 18.9 16.0 87 1.3 SW 7 9 4 5 1012.6 - 6.3
26/01:00am 18.3 19.0 16.2 87 1.3 SW 7 11 4 6 1012.9 - 6.3

Latest Capital City Observations: Canberra | Sydney | Melbourne | Brisbane | Adelaide | Perth | Hobart | Darwin

Other Formats:

Comma delimited format used in spreadsheet applications
http://www.bom.gov.au/fwo/IDN60901/IDN60901.95757.axf

JavaScript Object Notation format (JSON) in row-major order
http://www.bom.gov.au/fwo/IDN60901/IDN60901.95757.json